GGOVSACO

Guest
Details From GGOV - BISSAU OSWALDO VIEIRA INTL
To SACO - AMBROSIO L V TARAVELLA
Flight Number -
Tags decoded
Created
Modified
Stats Distance 4,255 nm / 7,879 km
Max Altitude 0 ft / 0 m
Waypoints 15
Social Downloads 4
Likes 0
Share VATSIM

Download

Looking for another format? Having issues loading an existing format? Contact us
Advertisement - Login to hide

Notes

Requested: GGOV LUSTI UA602 ORABI UN857 UTRAM B623 FNR UB623 REC UW10 LAP W10 IMBES UW10 BSI UM403 VAS UM529 SIS UA307 KUGLO UL531 SARNA UA307 ERE UL531 TREJO UA307 OSUDA SACO Unmatched points: UN857 UTRAM B623 FNR UB623 UW10 W10 IMBES UW10 UM403 UM529 UA307 KUGLO UL531 UL531

Route

GGOV LUSTI UA602 ORABI REC LAP VAS SIS UA307 OSUDA SACO

ID Type Via Altitude Latitude Longitude Leg Dist Tot Dist Heading (true) Name
O GGOV APT - 0 ft / 0 m 11.89017˚ -15.64883˚ - 0 nm - BISSAU OSWALDO VIEIRA INTL
LUSTI FIX - 0 ft / 0 m 12.31806˚ -16.48333˚ 55 nm 55 nm 298° / 298° -
TITOR FIX UA602 (AWY-HI) 0 ft / 0 m 13.00000˚ -18.00000˚ 97 nm 153 nm 295° / 295° -
INIRO FIX UA602 (AWY-HI) 0 ft / 0 m 13.33194˚ -18.42778˚ 31 nm 185 nm 309° / 309° -
MOGSA FIX UA602 (AWY-HI) 0 ft / 0 m 14.68833˚ -20.21139˚ 132 nm 317 nm 308° / 308° -
ORABI FIX UA602 (AWY-HI) 0 ft / 0 m 15.93833˚ -21.87000˚ 121 nm 439 nm 308° / 308° -
REC VOR - 0 ft / 0 m -8.13659˚ -34.92730˚ 1641 nm 2080 nm 209° / 208° RECIFE VOR-DME
LAP NDB - 0 ft / 0 m -13.26486˚ -43.41307˚ 587 nm 2668 nm 238° / 239° LAPA NDB
VAS VOR - 0 ft / 0 m -25.24417˚ -57.52194˚ 1074 nm 3742 nm 226° / 231° ASUNCION VOR-DME
SIS VOR - 0 ft / 0 m -27.44694˚ -59.05722˚ 155 nm 3898 nm 212° / 212° RESISTENCIA VOR-DME
SARNA FIX UA307 (AWY-HI) 0 ft / 0 m -29.12139˚ -60.98556˚ 143 nm 4041 nm 225° / 226° -
ERE VOR UA307 (AWY-HI) 0 ft / 0 m -29.86444˚ -61.87222˚ 64 nm 4105 nm 226° / 226° CERES VOR-DME
TREJO FIX UA307 (AWY-HI) 0 ft / 0 m -30.78167˚ -63.33222˚ 93 nm 4199 nm 234° / 234° -
OSUDA FIX UA307 (AWY-HI) 0 ft / 0 m -30.91611˚ -63.56750˚ 14 nm 4214 nm 236° / 236° -
O SACO APT - 0 ft / 0 m -31.31350˚ -64.20412˚ 40 nm 4254 nm 234° / 234° AMBROSIO L V TARAVELLA

Altitude Profile

Advertisement - Login to hide

Weather


0- 5 10 15 20 25 30 35+ Temperature / ° C

Clouds and Precipitation
Forecast for 2017-12-16 00:00 UTC. Updated 20 minutes ago

Ground ~20,000 ft ~40,000 ft Winds

GGOV

Details ICAO GGOV (OXB)
Name BISSAU OSWALDO VIEIRA INTL
Region Guinea Bissau
Timezone Africa/Bissau (UTC+0.0)
Stats Elevation 129 ft / 39 m (AMSL)
Location 11.890166° -15.648833°
Runways 1
Magnetic Variation 7.240° W

METAR

Not found

TAF

TAF GGOV 151700Z 1518/1618 36007KT CAVOK= TAF GQPP 151700Z 1518/1618 36015KT 6000 NSC PROB30 TEMPO 1518/1520 4000 DRSA TEMPO 1602/1608 BKN010

Decode

Departure Runways

ID Width Length Bearing (true) Bearing (mag) Surface Threshold Offset Overrun Length
03 148 ft / 45 m 10,509 ft / 3,203 m 22.10° 29.34° Asphalt 0 ft / 0 m 1,312 ft / 400 m
21 148 ft / 45 m 10,509 ft / 3,203 m 202.10° 209.34° Asphalt 0 ft / 0 m 656 ft / 200 m

SACO

Details ICAO SACO (COR)
Name AMBROSIO L V TARAVELLA
Region Argentina
Timezone America/Argentina/Cordoba (UTC-3.0)
Stats Elevation 1,604 ft / 489 m (AMSL)
Location -31.313499° -64.204123°
Runways 2
Magnetic Variation 5.558° W

METAR

SACO 152300Z 04011KT 9999 FEW025 30/18 Q1005

Decode

TAF

TAF SACO 151700Z 1518/1618 05015G25KT FEW035 FEW045TCU TX41/1618Z TN23/1610Z BECMG 1600/1603 05015K 8000 TSSHRA BKN040 FEW050CB FM 161200 05015KT 9999 CVTS BKN035 FEW040CB

Decode

Destination Runways

ID Width Length Bearing (true) Bearing (mag) Surface Threshold Offset Overrun Length
05 148 ft / 45 m 8,091 ft / 2,466 m 44.19° 49.75° Asphalt 840 ft / 256 m 0 ft / 0 m
18 148 ft / 45 m 10,441 ft / 3,182 m 179.75° 185.31° Concrete 0 ft / 0 m 0 ft / 0 m
23 148 ft / 45 m 8,091 ft / 2,466 m 224.18° 229.74° Asphalt 0 ft / 0 m 82 ft / 25 m
36 148 ft / 45 m 10,441 ft / 3,182 m 359.75° 5.31° Concrete 0 ft / 0 m 460 ft / 140 m

Approach Navaids

Runway Type Ident Frequency Range Bearing (true) Bearing (mag) Slope Elevation
18 Localiser CB 110.30 MHz 18 nm / 33 km 179.96° 185.52° - 1,604 ft / 489 m (AMSL)
18 Glidescope CB 110.30 MHz 10 nm / 19 km 179.75° 185.31° 2.50° 1,604 ft / 489 m (AMSL)
18 DME CB 110.30 MHz 18 nm / 33 km - - - 1,523 ft / 464 m (AMSL)

Popular Alternatives